sensor_id;sensor_type;location;lat;lon;timestamp;P1;durP1;ratioP1;P2;durP2;ratioP2
18610;SDS011;9435;52.122;5.502;2022-12-29T00:01:41;6.32;;;3.35;;
18610;SDS011;9435;52.122;5.502;2022-12-29T00:04:09;4.78;;;3.28;;
18610;SDS011;9435;52.122;5.502;2022-12-29T00:06:40;4.60;;;2.97;;
18610;SDS011;9435;52.122;5.502;2022-12-29T00:09:08;5.18;;;2.88;;
18610;SDS011;9435;52.122;5.502;2022-12-29T00:11:37;5.25;;;3.00;;
18610;SDS011;9435;52.122;5.502;2022-12-29T00:14:04;4.38;;;2.75;;
18610;SDS011;9435;52.122;5.502;2022-12-29T00:16:48;6.13;;;2.75;;
18610;SDS011;9435;52.122;5.502;2022-12-29T00:19:15;4.10;;;2.47;;
18610;SDS011;9435;52.122;5.502;2022-12-29T00:22:01;4.07;;;2.50;;
18610;SDS011;9435;52.122;5.502;2022-12-29T00:24:45;3.90;;;2.55;;
18610;SDS011;9435;52.122;5.502;2022-12-29T00:27:32;3.47;;;2.28;;
18610;SDS011;9435;52.122;5.502;2022-12-29T00:30:17;4.97;;;2.42;;
18610;SDS011;9435;52.122;5.502;2022-12-29T00:33:08;3.80;;;2.42;;
18610;SDS011;9435;52.122;5.502;2022-12-29T00:35:54;3.78;;;2.50;;
18610;SDS011;9435;52.122;5.502;2022-12-29T00:38:26;4.57;;;2.40;;
18610;SDS011;9435;52.122;5.502;2022-12-29T00:41:13;4.13;;;2.80;;
18610;SDS011;9435;52.122;5.502;2022-12-29T00:43:57;5.43;;;2.47;;
18610;SDS011;9435;52.122;5.502;2022-12-29T00:46:35;4.95;;;2.30;;
18610;SDS011;9435;52.122;5.502;2022-12-29T00:49:03;4.03;;;2.13;;
18610;SDS011;9435;52.122;5.502;2022-12-29T00:51:48;3.83;;;2.30;;
18610;SDS011;9435;52.122;5.502;2022-12-29T00:54:17;4.30;;;2.47;;
18610;SDS011;9435;52.122;5.502;2022-12-29T00:56:45;3.45;;;2.40;;
18610;SDS011;9435;52.122;5.502;2022-12-29T00:59:13;3.75;;;2.40;;
18610;SDS011;9435;52.122;5.502;2022-12-29T01:01:40;5.22;;;2.30;;
18610;SDS011;9435;52.122;5.502;2022-12-29T01:04:08;6.10;;;2.50;;
18610;SDS011;9435;52.122;5.502;2022-12-29T01:06:36;4.65;;;2.40;;
18610;SDS011;9435;52.122;5.502;2022-12-29T01:09:04;5.43;;;2.30;;
18610;SDS011;9435;52.122;5.502;2022-12-29T01:11:51;5.00;;;2.30;;
18610;SDS011;9435;52.122;5.502;2022-12-29T01:14:18;3.75;;;2.03;;
18610;SDS011;9435;52.122;5.502;2022-12-29T01:16:46;4.55;;;1.90;;
18610;SDS011;9435;52.122;5.502;2022-12-29T01:19:13;4.28;;;1.80;;
18610;SDS011;9435;52.122;5.502;2022-12-29T01:21:41;3.00;;;1.80;;
18610;SDS011;9435;52.122;5.502;2022-12-29T01:24:08;4.28;;;2.08;;
18610;SDS011;9435;52.122;5.502;2022-12-29T01:26:35;5.72;;;2.00;;
18610;SDS011;9435;52.122;5.502;2022-12-29T01:29:03;3.40;;;1.98;;
18610;SDS011;9435;52.122;5.502;2022-12-29T01:31:30;4.75;;;1.88;;
18610;SDS011;9435;52.122;5.502;2022-12-29T01:33:57;3.50;;;1.83;;
18610;SDS011;9435;52.122;5.502;2022-12-29T01:36:25;3.42;;;1.75;;
18610;SDS011;9435;52.122;5.502;2022-12-29T01:38:52;3.45;;;1.80;;
18610;SDS011;9435;52.122;5.502;2022-12-29T01:41:19;3.42;;;1.77;;
18610;SDS011;9435;52.122;5.502;2022-12-29T01:43:47;5.05;;;1.98;;
18610;SDS011;9435;52.122;5.502;2022-12-29T01:46:26;4.53;;;2.00;;
18610;SDS011;9435;52.122;5.502;2022-12-29T01:48:57;3.33;;;2.00;;
18610;SDS011;9435;52.122;5.502;2022-12-29T01:51:29;5.43;;;2.10;;
18610;SDS011;9435;52.122;5.502;2022-12-29T01:53:58;3.20;;;2.10;;
18610;SDS011;9435;52.122;5.502;2022-12-29T01:56:28;4.45;;;2.20;;
18610;SDS011;9435;52.122;5.502;2022-12-29T01:58:58;3.28;;;1.90;;
18610;SDS011;9435;52.122;5.502;2022-12-29T02:01:29;3.88;;;2.40;;
18610;SDS011;9435;52.122;5.502;2022-12-29T02:03:56;4.63;;;2.58;;
18610;SDS011;9435;52.122;5.502;2022-12-29T02:06:25;5.40;;;2.38;;
18610;SDS011;9435;52.122;5.502;2022-12-29T02:08:55;3.88;;;2.45;;
18610;SDS011;9435;52.122;5.502;2022-12-29T02:11:23;4.30;;;2.38;;
18610;SDS011;9435;52.122;5.502;2022-12-29T02:13:52;4.07;;;2.40;;
18610;SDS011;9435;52.122;5.502;2022-12-29T02:16:31;5.68;;;2.50;;
18610;SDS011;9435;52.122;5.502;2022-12-29T02:22:18;4.05;;;2.53;;
18610;SDS011;9435;52.122;5.502;2022-12-29T02:25:08;4.60;;;2.50;;
18610;SDS011;9435;52.122;5.502;2022-12-29T02:27:55;5.35;;;2.40;;
18610;SDS011;9435;52.122;5.502;2022-12-29T02:33:23;3.72;;;2.30;;
18610;SDS011;9435;52.122;5.502;2022-12-29T02:36:05;2.92;;;1.80;;
18610;SDS011;9435;52.122;5.502;2022-12-29T02:38:45;4.25;;;2.00;;
18610;SDS011;9435;52.122;5.502;2022-12-29T02:41:21;5.50;;;1.70;;
18610;SDS011;9435;52.122;5.502;2022-12-29T02:43:55;7.53;;;1.50;;
18610;SDS011;9435;52.122;5.502;2022-12-29T02:46:31;3.13;;;1.20;;
18610;SDS011;9435;52.122;5.502;2022-12-29T02:49:04;2.85;;;1.10;;
18610;SDS011;9435;52.122;5.502;2022-12-29T02:51:36;3.40;;;1.02;;
18610;SDS011;9435;52.122;5.502;2022-12-29T02:54:09;4.07;;;0.80;;
18610;SDS011;9435;52.122;5.502;2022-12-29T02:56:54;2.92;;;0.93;;
18610;SDS011;9435;52.122;5.502;2022-12-29T02:59:21;2.85;;;0.90;;
18610;SDS011;9435;52.122;5.502;2022-12-29T03:01:59;2.85;;;0.90;;
18610;SDS011;9435;52.122;5.502;2022-12-29T03:04:46;4.82;;;0.88;;
18610;SDS011;9435;52.122;5.502;2022-12-29T03:07:23;4.18;;;1.05;;
18610;SDS011;9435;52.122;5.502;2022-12-29T03:09:56;3.72;;;1.30;;
18610;SDS011;9435;52.122;5.502;2022-12-29T03:12:29;2.60;;;0.98;;
18610;SDS011;9435;52.122;5.502;2022-12-29T03:15:18;5.38;;;1.30;;
18610;SDS011;9435;52.122;5.502;2022-12-29T03:18:09;5.60;;;1.40;;
18610;SDS011;9435;52.122;5.502;2022-12-29T03:20:42;3.63;;;1.40;;
18610;SDS011;9435;52.122;5.502;2022-12-29T03:23:14;5.97;;;1.40;;
18610;SDS011;9435;52.122;5.502;2022-12-29T03:25:43;3.70;;;1.42;;
18610;SDS011;9435;52.122;5.502;2022-12-29T03:28:13;6.13;;;1.50;;
18610;SDS011;9435;52.122;5.502;2022-12-29T03:30:44;3.08;;;1.30;;
18610;SDS011;9435;52.122;5.502;2022-12-29T03:33:13;3.55;;;1.20;;
18610;SDS011;9435;52.122;5.502;2022-12-29T03:35:44;1.70;;;1.23;;
18610;SDS011;9435;52.122;5.502;2022-12-29T03:38:13;2.22;;;1.20;;
18610;SDS011;9435;52.122;5.502;2022-12-29T03:40:43;3.75;;;1.40;;
18610;SDS011;9435;52.122;5.502;2022-12-29T03:43:13;4.28;;;1.30;;
18610;SDS011;9435;52.122;5.502;2022-12-29T03:45:41;3.00;;;1.50;;
18610;SDS011;9435;52.122;5.502;2022-12-29T03:48:08;3.60;;;1.60;;
18610;SDS011;9435;52.122;5.502;2022-12-29T03:50:37;2.47;;;1.27;;
18610;SDS011;9435;52.122;5.502;2022-12-29T03:53:04;4.30;;;1.42;;
18610;SDS011;9435;52.122;5.502;2022-12-29T03:55:31;4.78;;;1.30;;
18610;SDS011;9435;52.122;5.502;2022-12-29T03:57:58;3.67;;;1.50;;
18610;SDS011;9435;52.122;5.502;2022-12-29T04:00:25;3.75;;;1.30;;
18610;SDS011;9435;52.122;5.502;2022-12-29T04:02:53;5.47;;;1.30;;
18610;SDS011;9435;52.122;5.502;2022-12-29T04:05:20;2.55;;;1.33;;
18610;SDS011;9435;52.122;5.502;2022-12-29T04:07:49;3.58;;;1.55;;
18610;SDS011;9435;52.122;5.502;2022-12-29T04:10:16;4.63;;;1.60;;
18610;SDS011;9435;52.122;5.502;2022-12-29T04:12:43;4.45;;;1.52;;
18610;SDS011;9435;52.122;5.502;2022-12-29T04:15:11;4.40;;;1.50;;
18610;SDS011;9435;52.122;5.502;2022-12-29T04:17:38;3.42;;;1.50;;
18610;SDS011;9435;52.122;5.502;2022-12-29T04:20:06;5.30;;;1.50;;
18610;SDS011;9435;52.122;5.502;2022-12-29T04:22:58;6.03;;;1.50;;
18610;SDS011;9435;52.122;5.502;2022-12-29T04:25:26;6.32;;;1.40;;
18610;SDS011;9435;52.122;5.502;2022-12-29T04:27:53;4.60;;;1.60;;
18610;SDS011;9435;52.122;5.502;2022-12-29T04:30:20;6.18;;;1.52;;
18610;SDS011;9435;52.122;5.502;2022-12-29T04:32:47;5.47;;;1.60;;
18610;SDS011;9435;52.122;5.502;2022-12-29T04:35:14;5.05;;;1.60;;
18610;SDS011;9435;52.122;5.502;2022-12-29T04:37:42;7.95;;;1.40;;
18610;SDS011;9435;52.122;5.502;2022-12-29T04:40:11;6.72;;;1.80;;
18610;SDS011;9435;52.122;5.502;2022-12-29T04:42:38;8.50;;;1.38;;
18610;SDS011;9435;52.122;5.502;2022-12-29T04:45:06;5.78;;;1.10;;
18610;SDS011;9435;52.122;5.502;2022-12-29T04:47:34;6.43;;;1.20;;
18610;SDS011;9435;52.122;5.502;2022-12-29T04:50:01;11.82;;;1.77;;
18610;SDS011;9435;52.122;5.502;2022-12-29T04:52:28;9.05;;;1.23;;
18610;SDS011;9435;52.122;5.502;2022-12-29T04:54:55;11.55;;;1.52;;
18610;SDS011;9435;52.122;5.502;2022-12-29T04:57:24;10.82;;;1.50;;
18610;SDS011;9435;52.122;5.502;2022-12-29T04:59:51;6.95;;;1.45;;
18610;SDS011;9435;52.122;5.502;2022-12-29T05:02:18;9.75;;;1.45;;
18610;SDS011;9435;52.122;5.502;2022-12-29T05:04:45;10.13;;;1.10;;
18610;SDS011;9435;52.122;5.502;2022-12-29T05:07:12;9.77;;;1.30;;
18610;SDS011;9435;52.122;5.502;2022-12-29T05:09:39;9.25;;;1.17;;
18610;SDS011;9435;52.122;5.502;2022-12-29T05:12:07;8.80;;;1.10;;
18610;SDS011;9435;52.122;5.502;2022-12-29T05:14:35;10.77;;;1.27;;
18610;SDS011;9435;52.122;5.502;2022-12-29T05:17:02;8.50;;;1.10;;
18610;SDS011;9435;52.122;5.502;2022-12-29T05:19:29;11.80;;;1.50;;
18610;SDS011;9435;52.122;5.502;2022-12-29T05:21:56;8.15;;;1.25;;
18610;SDS011;9435;52.122;5.502;2022-12-29T05:24:23;16.95;;;1.40;;
18610;SDS011;9435;52.122;5.502;2022-12-29T05:26:50;11.25;;;1.35;;
18610;SDS011;9435;52.122;5.502;2022-12-29T05:29:17;10.10;;;1.08;;
18610;SDS011;9435;52.122;5.502;2022-12-29T05:31:46;13.23;;;1.20;;
18610;SDS011;9435;52.122;5.502;2022-12-29T05:34:13;9.85;;;1.42;;
18610;SDS011;9435;52.122;5.502;2022-12-29T05:36:40;11.77;;;1.17;;
18610;SDS011;9435;52.122;5.502;2022-12-29T05:39:07;11.23;;;1.20;;
18610;SDS011;9435;52.122;5.502;2022-12-29T05:41:34;13.80;;;1.40;;
18610;SDS011;9435;52.122;5.502;2022-12-29T05:44:01;11.05;;;1.40;;
18610;SDS011;9435;52.122;5.502;2022-12-29T05:46:29;9.00;;;1.27;;
18610;SDS011;9435;52.122;5.502;2022-12-29T05:48:57;8.82;;;1.35;;
18610;SDS011;9435;52.122;5.502;2022-12-29T05:51:25;11.65;;;1.25;;
18610;SDS011;9435;52.122;5.502;2022-12-29T05:53:52;9.77;;;1.10;;
18610;SDS011;9435;52.122;5.502;2022-12-29T05:56:19;9.40;;;1.30;;
18610;SDS011;9435;52.122;5.502;2022-12-29T05:58:46;6.82;;;1.20;;
18610;SDS011;9435;52.122;5.502;2022-12-29T06:01:13;8.80;;;1.50;;
18610;SDS011;9435;52.122;5.502;2022-12-29T06:03:40;15.85;;;1.92;;
18610;SDS011;9435;52.122;5.502;2022-12-29T06:06:09;12.77;;;1.40;;
18610;SDS011;9435;52.122;5.502;2022-12-29T06:08:36;6.90;;;1.15;;
18610;SDS011;9435;52.122;5.502;2022-12-29T06:11:03;8.20;;;1.30;;
18610;SDS011;9435;52.122;5.502;2022-12-29T06:13:30;8.98;;;1.48;;
18610;SDS011;9435;52.122;5.502;2022-12-29T06:15:58;9.77;;;1.58;;
18610;SDS011;9435;52.122;5.502;2022-12-29T06:18:26;11.05;;;1.73;;
18610;SDS011;9435;52.122;5.502;2022-12-29T06:20:53;12.82;;;1.58;;
18610;SDS011;9435;52.122;5.502;2022-12-29T06:23:21;10.73;;;1.75;;
18610;SDS011;9435;52.122;5.502;2022-12-29T06:25:48;9.20;;;1.52;;
18610;SDS011;9435;52.122;5.502;2022-12-29T06:28:15;14.40;;;1.58;;
18610;SDS011;9435;52.122;5.502;2022-12-29T06:30:43;11.43;;;1.70;;
18610;SDS011;9435;52.122;5.502;2022-12-29T06:33:11;10.13;;;1.42;;
18610;SDS011;9435;52.122;5.502;2022-12-29T06:35:38;12.98;;;1.73;;
18610;SDS011;9435;52.122;5.502;2022-12-29T06:38:05;8.32;;;1.40;;
18610;SDS011;9435;52.122;5.502;2022-12-29T06:40:34;11.98;;;1.65;;
18610;SDS011;9435;52.122;5.502;2022-12-29T06:43:01;13.48;;;1.65;;
18610;SDS011;9435;52.122;5.502;2022-12-29T06:45:28;11.48;;;1.75;;
18610;SDS011;9435;52.122;5.502;2022-12-29T06:47:55;10.63;;;1.30;;
18610;SDS011;9435;52.122;5.502;2022-12-29T06:50:22;15.85;;;1.70;;
18610;SDS011;9435;52.122;5.502;2022-12-29T06:52:49;11.73;;;1.50;;
18610;SDS011;9435;52.122;5.502;2022-12-29T06:55:16;15.77;;;1.92;;
18610;SDS011;9435;52.122;5.502;2022-12-29T06:57:45;9.20;;;1.38;;
18610;SDS011;9435;52.122;5.502;2022-12-29T07:00:12;11.13;;;1.52;;
18610;SDS011;9435;52.122;5.502;2022-12-29T07:02:40;13.25;;;1.77;;
18610;SDS011;9435;52.122;5.502;2022-12-29T07:05:07;12.77;;;1.45;;
18610;SDS011;9435;52.122;5.502;2022-12-29T07:07:35;11.32;;;1.50;;
18610;SDS011;9435;52.122;5.502;2022-12-29T07:10:02;9.52;;;1.40;;
18610;SDS011;9435;52.122;5.502;2022-12-29T07:12:29;13.75;;;1.63;;
18610;SDS011;9435;52.122;5.502;2022-12-29T07:14:58;10.40;;;1.38;;
18610;SDS011;9435;52.122;5.502;2022-12-29T07:17:25;11.52;;;1.65;;
18610;SDS011;9435;52.122;5.502;2022-12-29T07:19:52;13.70;;;1.65;;
18610;SDS011;9435;52.122;5.502;2022-12-29T07:22:19;16.65;;;1.67;;
18610;SDS011;9435;52.122;5.502;2022-12-29T07:24:46;8.43;;;1.65;;
18610;SDS011;9435;52.122;5.502;2022-12-29T07:27:13;11.77;;;1.70;;
18610;SDS011;9435;52.122;5.502;2022-12-29T07:29:40;10.98;;;1.75;;
18610;SDS011;9435;52.122;5.502;2022-12-29T07:32:09;11.65;;;1.90;;
18610;SDS011;9435;52.122;5.502;2022-12-29T07:34:36;9.68;;;1.77;;
18610;SDS011;9435;52.122;5.502;2022-12-29T07:37:04;7.88;;;1.60;;
18610;SDS011;9435;52.122;5.502;2022-12-29T07:39:32;8.20;;;1.63;;
18610;SDS011;9435;52.122;5.502;2022-12-29T07:41:59;9.48;;;1.88;;
18610;SDS011;9435;52.122;5.502;2022-12-29T07:44:26;14.10;;;1.70;;
18610;SDS011;9435;52.122;5.502;2022-12-29T07:46:53;10.27;;;1.75;;
18610;SDS011;9435;52.122;5.502;2022-12-29T07:49:21;11.80;;;1.88;;
18610;SDS011;9435;52.122;5.502;2022-12-29T07:51:49;10.68;;;1.70;;
18610;SDS011;9435;52.122;5.502;2022-12-29T07:54:16;11.05;;;1.50;;
18610;SDS011;9435;52.122;5.502;2022-12-29T07:56:44;9.48;;;1.60;;
18610;SDS011;9435;52.122;5.502;2022-12-29T07:59:11;9.95;;;1.90;;
18610;SDS011;9435;52.122;5.502;2022-12-29T08:01:38;10.18;;;1.85;;
18610;SDS011;9435;52.122;5.502;2022-12-29T08:04:05;12.13;;;1.92;;
18610;SDS011;9435;52.122;5.502;2022-12-29T08:06:34;11.32;;;1.90;;
18610;SDS011;9435;52.122;5.502;2022-12-29T08:09:03;12.77;;;1.67;;
18610;SDS011;9435;52.122;5.502;2022-12-29T08:11:30;12.27;;;2.08;;
18610;SDS011;9435;52.122;5.502;2022-12-29T08:13:57;7.63;;;1.50;;
18610;SDS011;9435;52.122;5.502;2022-12-29T08:16:24;10.50;;;1.77;;
18610;SDS011;9435;52.122;5.502;2022-12-29T08:18:51;10.70;;;1.70;;
18610;SDS011;9435;52.122;5.502;2022-12-29T08:21:18;14.30;;;1.88;;
18610;SDS011;9435;52.122;5.502;2022-12-29T08:23:47;10.23;;;1.58;;
18610;SDS011;9435;52.122;5.502;2022-12-29T08:26:14;13.00;;;1.95;;
18610;SDS011;9435;52.122;5.502;2022-12-29T08:28:41;10.18;;;1.70;;
18610;SDS011;9435;52.122;5.502;2022-12-29T08:31:08;16.95;;;1.77;;
18610;SDS011;9435;52.122;5.502;2022-12-29T08:33:36;14.35;;;1.45;;
18610;SDS011;9435;52.122;5.502;2022-12-29T08:36:04;12.68;;;1.92;;
18610;SDS011;9435;52.122;5.502;2022-12-29T08:38:33;13.13;;;1.85;;
18610;SDS011;9435;52.122;5.502;2022-12-29T08:41:01;10.27;;;1.48;;
18610;SDS011;9435;52.122;5.502;2022-12-29T08:43:28;12.70;;;1.60;;
18610;SDS011;9435;52.122;5.502;2022-12-29T08:45:56;11.68;;;1.83;;
18610;SDS011;9435;52.122;5.502;2022-12-29T08:48:24;12.68;;;1.55;;
18610;SDS011;9435;52.122;5.502;2022-12-29T08:50:51;9.63;;;1.73;;
18610;SDS011;9435;52.122;5.502;2022-12-29T08:53:19;13.68;;;1.80;;
18610;SDS011;9435;52.122;5.502;2022-12-29T08:55:46;12.50;;;1.58;;
18610;SDS011;9435;52.122;5.502;2022-12-29T08:58:21;16.23;;;1.65;;
18610;SDS011;9435;52.122;5.502;2022-12-29T09:00:49;9.60;;;1.65;;
18610;SDS011;9435;52.122;5.502;2022-12-29T09:03:17;17.25;;;2.10;;
18610;SDS011;9435;52.122;5.502;2022-12-29T09:05:47;11.02;;;1.50;;
18610;SDS011;9435;52.122;5.502;2022-12-29T09:08:14;8.98;;;1.75;;
18610;SDS011;9435;52.122;5.502;2022-12-29T09:10:41;10.15;;;1.60;;
18610;SDS011;9435;52.122;5.502;2022-12-29T09:13:08;13.50;;;1.52;;
18610;SDS011;9435;52.122;5.502;2022-12-29T09:15:37;8.70;;;1.25;;
18610;SDS011;9435;52.122;5.502;2022-12-29T09:18:04;12.55;;;1.80;;
18610;SDS011;9435;52.122;5.502;2022-12-29T09:20:32;10.55;;;1.85;;
18610;SDS011;9435;52.122;5.502;2022-12-29T09:22:59;11.20;;;1.60;;
18610;SDS011;9435;52.122;5.502;2022-12-29T09:25:27;10.55;;;1.45;;
18610;SDS011;9435;52.122;5.502;2022-12-29T09:27:54;11.25;;;1.75;;
18610;SDS011;9435;52.122;5.502;2022-12-29T09:30:22;11.80;;;1.52;;
18610;SDS011;9435;52.122;5.502;2022-12-29T09:32:51;15.85;;;1.95;;
18610;SDS011;9435;52.122;5.502;2022-12-29T09:35:18;16.38;;;2.38;;
18610;SDS011;9435;52.122;5.502;2022-12-29T09:37:45;11.27;;;1.80;;
18610;SDS011;9435;52.122;5.502;2022-12-29T09:40:20;10.70;;;1.65;;
18610;SDS011;9435;52.122;5.502;2022-12-29T09:42:59;11.43;;;1.83;;
18610;SDS011;9435;52.122;5.502;2022-12-29T09:45:48;8.68;;;1.30;;
18610;SDS011;9435;52.122;5.502;2022-12-29T09:48:23;11.48;;;1.60;;
18610;SDS011;9435;52.122;5.502;2022-12-29T09:50:55;12.30;;;2.05;;
18610;SDS011;9435;52.122;5.502;2022-12-29T09:53:25;13.07;;;1.95;;
18610;SDS011;9435;52.122;5.502;2022-12-29T09:55:57;12.57;;;2.17;;
18610;SDS011;9435;52.122;5.502;2022-12-29T09:58:28;16.55;;;1.75;;
18610;SDS011;9435;52.122;5.502;2022-12-29T10:01:02;12.45;;;1.90;;
18610;SDS011;9435;52.122;5.502;2022-12-29T10:03:35;11.43;;;2.10;;
18610;SDS011;9435;52.122;5.502;2022-12-29T10:06:12;11.60;;;1.80;;
18610;SDS011;9435;52.122;5.502;2022-12-29T10:08:44;12.07;;;1.98;;
18610;SDS011;9435;52.122;5.502;2022-12-29T10:11:21;11.65;;;1.80;;
18610;SDS011;9435;52.122;5.502;2022-12-29T10:14:04;14.20;;;2.10;;
18610;SDS011;9435;52.122;5.502;2022-12-29T10:16:46;8.82;;;1.85;;
18610;SDS011;9435;52.122;5.502;2022-12-29T10:19:28;8.95;;;1.67;;
18610;SDS011;9435;52.122;5.502;2022-12-29T10:22:09;12.57;;;2.20;;
18610;SDS011;9435;52.122;5.502;2022-12-29T10:24:46;8.30;;;1.77;;
18610;SDS011;9435;52.122;5.502;2022-12-29T10:27:15;11.07;;;2.38;;
18610;SDS011;9435;52.122;5.502;2022-12-29T10:29:44;11.27;;;2.60;;
18610;SDS011;9435;52.122;5.502;2022-12-29T10:32:18;9.18;;;2.03;;
18610;SDS011;9435;52.122;5.502;2022-12-29T10:34:55;15.13;;;2.40;;
18610;SDS011;9435;52.122;5.502;2022-12-29T10:37:29;11.55;;;2.03;;
18610;SDS011;9435;52.122;5.502;2022-12-29T10:40:02;11.23;;;2.20;;
18610;SDS011;9435;52.122;5.502;2022-12-29T10:42:41;11.73;;;2.33;;
18610;SDS011;9435;52.122;5.502;2022-12-29T10:45:12;10.77;;;2.45;;
18610;SDS011;9435;52.122;5.502;2022-12-29T10:47:44;7.45;;;2.13;;
18610;SDS011;9435;52.122;5.502;2022-12-29T10:50:19;10.65;;;2.47;;
18610;SDS011;9435;52.122;5.502;2022-12-29T10:52:46;12.23;;;2.47;;
18610;SDS011;9435;52.122;5.502;2022-12-29T10:55:15;13.85;;;3.03;;
18610;SDS011;9435;52.122;5.502;2022-12-29T10:57:48;11.48;;;3.20;;
18610;SDS011;9435;52.122;5.502;2022-12-29T11:00:16;15.93;;;3.05;;
18610;SDS011;9435;52.122;5.502;2022-12-29T11:02:52;16.75;;;3.10;;
18610;SDS011;9435;52.122;5.502;2022-12-29T11:05:51;14.43;;;3.40;;
18610;SDS011;9435;52.122;5.502;2022-12-29T11:08:21;20.10;;;4.03;;
18610;SDS011;9435;52.122;5.502;2022-12-29T11:10:57;21.98;;;4.15;;
18610;SDS011;9435;52.122;5.502;2022-12-29T11:13:26;16.90;;;3.40;;
18610;SDS011;9435;52.122;5.502;2022-12-29T11:15:54;20.83;;;4.13;;
18610;SDS011;9435;52.122;5.502;2022-12-29T11:18:22;22.13;;;3.95;;
18610;SDS011;9435;52.122;5.502;2022-12-29T11:20:53;20.15;;;3.75;;
18610;SDS011;9435;52.122;5.502;2022-12-29T11:23:31;18.70;;;3.90;;
18610;SDS011;9435;52.122;5.502;2022-12-29T11:26:06;20.63;;;3.92;;
18610;SDS011;9435;52.122;5.502;2022-12-29T11:28:41;16.98;;;3.70;;
18610;SDS011;9435;52.122;5.502;2022-12-29T11:31:10;17.38;;;3.55;;
18610;SDS011;9435;52.122;5.502;2022-12-29T11:33:41;18.02;;;3.63;;
18610;SDS011;9435;52.122;5.502;2022-12-29T11:36:11;21.63;;;4.25;;
18610;SDS011;9435;52.122;5.502;2022-12-29T11:38:42;20.38;;;3.47;;
18610;SDS011;9435;52.122;5.502;2022-12-29T11:41:19;22.45;;;3.60;;
18610;SDS011;9435;52.122;5.502;2022-12-29T11:43:49;19.95;;;3.58;;
18610;SDS011;9435;52.122;5.502;2022-12-29T11:46:17;22.70;;;3.45;;
18610;SDS011;9435;52.122;5.502;2022-12-29T11:48:47;15.63;;;3.35;;
18610;SDS011;9435;52.122;5.502;2022-12-29T11:51:22;20.10;;;3.22;;
18610;SDS011;9435;52.122;5.502;2022-12-29T11:53:53;17.13;;;3.50;;
18610;SDS011;9435;52.122;5.502;2022-12-29T11:56:32;16.65;;;3.03;;
18610;SDS011;9435;52.122;5.502;2022-12-29T12:01:51;20.58;;;3.35;;
18610;SDS011;9435;52.122;5.502;2022-12-29T12:04:19;17.15;;;2.95;;
18610;SDS011;9435;52.122;5.502;2022-12-29T12:06:54;21.77;;;2.80;;
18610;SDS011;9435;52.122;5.502;2022-12-29T12:09:27;15.13;;;2.78;;
18610;SDS011;9435;52.122;5.502;2022-12-29T12:11:57;16.42;;;2.60;;
18610;SDS011;9435;52.122;5.502;2022-12-29T12:14:27;17.83;;;2.55;;
18610;SDS011;9435;52.122;5.502;2022-12-29T12:16:58;14.25;;;3.00;;
18610;SDS011;9435;52.122;5.502;2022-12-29T12:19:31;19.33;;;3.28;;
18610;SDS011;9435;52.122;5.502;2022-12-29T12:22:03;15.13;;;2.85;;
18610;SDS011;9435;52.122;5.502;2022-12-29T12:24:37;16.58;;;3.40;;
18610;SDS011;9435;52.122;5.502;2022-12-29T12:27:10;21.90;;;3.00;;
18610;SDS011;9435;52.122;5.502;2022-12-29T12:29:43;17.98;;;3.17;;
18610;SDS011;9435;52.122;5.502;2022-12-29T12:32:17;24.70;;;3.20;;
18610;SDS011;9435;52.122;5.502;2022-12-29T12:34:49;20.52;;;3.20;;
18610;SDS011;9435;52.122;5.502;2022-12-29T12:43:24;18.73;;;3.35;;
18610;SDS011;9435;52.122;5.502;2022-12-29T12:46:17;16.70;;;3.20;;
18610;SDS011;9435;52.122;5.502;2022-12-29T12:49:01;17.27;;;3.00;;
18610;SDS011;9435;52.122;5.502;2022-12-29T12:51:43;18.70;;;2.70;;
18610;SDS011;9435;52.122;5.502;2022-12-29T12:54:23;20.48;;;3.50;;
18610;SDS011;9435;52.122;5.502;2022-12-29T12:57:02;16.15;;;3.30;;
18610;SDS011;9435;52.122;5.502;2022-12-29T12:59:40;14.55;;;2.70;;
18610;SDS011;9435;52.122;5.502;2022-12-29T13:02:20;23.15;;;3.20;;
18610;SDS011;9435;52.122;5.502;2022-12-29T13:05:04;17.83;;;3.03;;
18610;SDS011;9435;52.122;5.502;2022-12-29T13:07:50;20.45;;;3.10;;
18610;SDS011;9435;52.122;5.502;2022-12-29T13:16:31;17.20;;;3.25;;
18610;SDS011;9435;52.122;5.502;2022-12-29T13:19:08;17.48;;;3.10;;
18610;SDS011;9435;52.122;5.502;2022-12-29T13:21:50;17.63;;;3.45;;
18610;SDS011;9435;52.122;5.502;2022-12-29T13:24:24;19.35;;;3.20;;
18610;SDS011;9435;52.122;5.502;2022-12-29T13:26:58;19.63;;;3.40;;
18610;SDS011;9435;52.122;5.502;2022-12-29T13:29:31;17.38;;;3.53;;
18610;SDS011;9435;52.122;5.502;2022-12-29T13:32:06;17.52;;;3.55;;
18610;SDS011;9435;52.122;5.502;2022-12-29T13:34:43;17.95;;;3.50;;
18610;SDS011;9435;52.122;5.502;2022-12-29T13:37:20;18.83;;;3.38;;
18610;SDS011;9435;52.122;5.502;2022-12-29T13:39:52;21.50;;;3.55;;
18610;SDS011;9435;52.122;5.502;2022-12-29T13:42:25;20.73;;;3.72;;
18610;SDS011;9435;52.122;5.502;2022-12-29T13:44:54;21.05;;;4.05;;
18610;SDS011;9435;52.122;5.502;2022-12-29T13:47:27;16.55;;;3.08;;
18610;SDS011;9435;52.122;5.502;2022-12-29T13:49:59;17.15;;;3.60;;
18610;SDS011;9435;52.122;5.502;2022-12-29T13:52:31;19.70;;;3.50;;
18610;SDS011;9435;52.122;5.502;2022-12-29T13:55:06;21.75;;;3.55;;
18610;SDS011;9435;52.122;5.502;2022-12-29T13:57:47;18.27;;;3.50;;
18610;SDS011;9435;52.122;5.502;2022-12-29T14:00:18;22.83;;;3.17;;
18610;SDS011;9435;52.122;5.502;2022-12-29T14:02:53;14.32;;;3.10;;
18610;SDS011;9435;52.122;5.502;2022-12-29T14:05:35;15.30;;;3.38;;
18610;SDS011;9435;52.122;5.502;2022-12-29T14:08:04;17.10;;;2.92;;
18610;SDS011;9435;52.122;5.502;2022-12-29T14:10:32;13.85;;;2.50;;
18610;SDS011;9435;52.122;5.502;2022-12-29T14:13:06;15.00;;;2.83;;
18610;SDS011;9435;52.122;5.502;2022-12-29T14:15:39;21.80;;;3.22;;
18610;SDS011;9435;52.122;5.502;2022-12-29T14:18:13;12.95;;;2.30;;
18610;SDS011;9435;52.122;5.502;2022-12-29T14:20:50;13.30;;;2.33;;
18610;SDS011;9435;52.122;5.502;2022-12-29T14:23:27;11.38;;;1.88;;
18610;SDS011;9435;52.122;5.502;2022-12-29T14:26:15;7.65;;;1.45;;
18610;SDS011;9435;52.122;5.502;2022-12-29T14:28:47;12.38;;;2.08;;
18610;SDS011;9435;52.122;5.502;2022-12-29T14:31:33;5.35;;;1.20;;
18610;SDS011;9435;52.122;5.502;2022-12-29T14:34:15;8.23;;;1.20;;
18610;SDS011;9435;52.122;5.502;2022-12-29T14:36:53;4.25;;;0.90;;
18610;SDS011;9435;52.122;5.502;2022-12-29T14:39:28;5.88;;;1.00;;
18610;SDS011;9435;52.122;5.502;2022-12-29T14:41:59;4.53;;;0.80;;
18610;SDS011;9435;52.122;5.502;2022-12-29T14:44:28;6.95;;;0.77;;
18610;SDS011;9435;52.122;5.502;2022-12-29T14:46:56;4.32;;;0.85;;
18610;SDS011;9435;52.122;5.502;2022-12-29T14:49:26;7.35;;;1.20;;
18610;SDS011;9435;52.122;5.502;2022-12-29T14:52:03;4.57;;;0.88;;
18610;SDS011;9435;52.122;5.502;2022-12-29T14:54:44;4.32;;;1.13;;
18610;SDS011;9435;52.122;5.502;2022-12-29T14:57:28;9.95;;;1.30;;
18610;SDS011;9435;52.122;5.502;2022-12-29T15:00:06;7.03;;;1.20;;
18610;SDS011;9435;52.122;5.502;2022-12-29T15:02:46;7.85;;;1.60;;
18610;SDS011;9435;52.122;5.502;2022-12-29T15:05:24;8.10;;;1.48;;
18610;SDS011;9435;52.122;5.502;2022-12-29T15:07:56;9.07;;;1.70;;
18610;SDS011;9435;52.122;5.502;2022-12-29T15:10:24;10.95;;;1.88;;
18610;SDS011;9435;52.122;5.502;2022-12-29T15:12:53;7.25;;;1.60;;
18610;SDS011;9435;52.122;5.502;2022-12-29T15:15:24;6.65;;;1.70;;
18610;SDS011;9435;52.122;5.502;2022-12-29T15:17:53;10.20;;;2.30;;
18610;SDS011;9435;52.122;5.502;2022-12-29T15:20:22;8.30;;;1.85;;
18610;SDS011;9435;52.122;5.502;2022-12-29T15:22:53;10.20;;;2.30;;
18610;SDS011;9435;52.122;5.502;2022-12-29T15:25:22;9.68;;;2.53;;
18610;SDS011;9435;52.122;5.502;2022-12-29T15:27:50;15.90;;;3.20;;
18610;SDS011;9435;52.122;5.502;2022-12-29T15:30:19;16.38;;;3.25;;
18610;SDS011;9435;52.122;5.502;2022-12-29T15:32:48;15.88;;;3.40;;
18610;SDS011;9435;52.122;5.502;2022-12-29T15:35:24;14.50;;;3.30;;
18610;SDS011;9435;52.122;5.502;2022-12-29T15:37:53;11.23;;;3.00;;
18610;SDS011;9435;52.122;5.502;2022-12-29T15:40:21;14.85;;;2.92;;